createdAt,value
2019-04-30T00:00:34.837Z,18.85
2019-04-30T00:06:39.478Z,19.17
2019-04-30T00:12:42.734Z,20.05
2019-04-30T00:18:57.188Z,20.10
2019-04-30T00:24:52.870Z,20.02
2019-04-30T00:30:57.103Z,19.92
2019-04-30T00:37:01.343Z,19.45
2019-04-30T00:43:08.997Z,18.12
2019-04-30T00:49:16.080Z,19.70
2019-04-30T00:55:17.559Z,20.12
2019-04-30T01:01:48.079Z,19.50
2019-04-30T01:07:52.653Z,19.87
2019-04-30T01:13:58.949Z,19.30
2019-04-30T01:20:03.391Z,19.98
2019-04-30T01:26:08.719Z,18.95
2019-04-30T01:32:17.577Z,19.87
2019-04-30T01:38:19.630Z,19.42
2019-04-30T01:44:23.913Z,18.95
2019-04-30T01:50:29.249Z,18.65
2019-04-30T01:56:52.557Z,18.40
2019-04-30T02:02:56.905Z,18.32
2019-04-30T02:09:01.391Z,16.77
2019-04-30T02:15:05.857Z,16.90
2019-04-30T02:21:11.430Z,17.15
2019-04-30T02:27:15.769Z,18.55
2019-04-30T02:33:20.439Z,17.67
2019-04-30T02:39:24.819Z,16.25
2019-04-30T02:45:30.020Z,17.45
2019-04-30T02:51:36.267Z,17.55
2019-04-30T02:57:40.599Z,17.52
2019-04-30T03:03:44.945Z,16.40
2019-04-30T03:09:49.946Z,15.15
2019-04-30T03:15:54.288Z,13.20
2019-04-30T03:22:02.414Z,12.95
2019-04-30T03:28:06.769Z,12.03
2019-04-30T03:34:17.968Z,12.45
2019-04-30T03:40:20.074Z,13.62
2019-04-30T03:46:23.115Z,13.38
2019-04-30T03:52:29.179Z,12.35
2019-04-30T03:58:33.431Z,12.65
2019-04-30T04:04:45.546Z,11.12
2019-04-30T04:11:06.810Z,12.18
2019-04-30T04:17:11.092Z,12.70
2019-04-30T04:23:15.361Z,12.35
2019-04-30T04:29:19.878Z,12.95
2019-04-30T04:35:24.194Z,13.05
2019-04-30T04:41:29.544Z,13.65
2019-04-30T04:47:33.999Z,14.03
2019-04-30T04:53:40.151Z,13.35
2019-04-30T04:59:44.272Z,13.43
2019-04-30T05:05:49.966Z,13.90
2019-04-30T05:11:54.387Z,13.78
2019-04-30T05:17:59.276Z,14.53
2019-04-30T05:24:03.780Z,15.78
2019-04-30T05:30:09.681Z,16.05
2019-04-30T05:36:14.669Z,15.83
2019-04-30T05:42:19.005Z,15.78
2019-04-30T05:48:23.293Z,16.85
2019-04-30T05:54:29.138Z,15.78
2019-04-30T06:00:33.775Z,15.85
2019-04-30T06:06:38.881Z,16.67
2019-04-30T06:13:05.234Z,17.30
2019-04-30T06:19:09.527Z,16.73
2019-04-30T06:25:13.745Z,16.75
2019-04-30T06:31:22.299Z,16.15
2019-04-30T06:37:24.698Z,15.72
2019-04-30T06:43:29.181Z,15.88
2019-04-30T06:49:34.288Z,15.32
2019-04-30T06:55:39.155Z,15.40
2019-04-30T07:01:43.660Z,13.10
2019-04-30T07:08:09.223Z,13.95
2019-04-30T07:14:11.491Z,11.63
2019-04-30T07:20:15.764Z,11.12
2019-04-30T07:26:24.343Z,12.65
2019-04-30T07:32:26.198Z,8.93
2019-04-30T07:38:30.412Z,10.08
2019-04-30T07:44:36.616Z,10.90
2019-04-30T07:50:41.514Z,8.60
2019-04-30T07:56:46.117Z,8.43
2019-04-30T08:03:02.982Z,8.78
2019-04-30T08:09:10.302Z,10.98
2019-04-30T08:15:14.706Z,10.93
2019-04-30T08:21:19.137Z,11.38
2019-04-30T08:27:23.679Z,11.65
2019-04-30T08:33:29.212Z,11.50
2019-04-30T08:39:33.685Z,10.82
2019-04-30T08:45:38.552Z,10.18
2019-04-30T08:51:42.935Z,10.45
2019-04-30T08:57:47.367Z,10.58
2019-04-30T09:03:51.592Z,10.65
2019-04-30T09:09:56.003Z,9.88
2019-04-30T09:16:00.264Z,10.25
2019-04-30T09:22:12.389Z,9.58
2019-04-30T09:28:10.525Z,10.50
2019-04-30T09:34:17.898Z,9.95
2019-04-30T09:40:21.299Z,11.08
2019-04-30T09:46:27.124Z,11.60
2019-04-30T09:52:31.977Z,13.30
2019-04-30T09:58:36.395Z,14.98
2019-04-30T10:04:41.251Z,15.65
2019-04-30T10:10:52.452Z,18.52
2019-04-30T10:17:09.533Z,18.10
2019-04-30T10:23:13.915Z,17.10
2019-04-30T10:29:18.648Z,16.25
2019-04-30T10:35:22.891Z,16.30
2019-04-30T10:41:28.776Z,18.67
2019-04-30T10:47:33.124Z,19.32
2019-04-30T10:53:37.562Z,22.70
2019-04-30T10:59:41.867Z,21.33
2019-04-30T11:05:46.178Z,20.85
2019-04-30T11:11:50.396Z,20.45
2019-04-30T11:17:54.718Z,19.57
2019-04-30T11:23:59.621Z,19.92
2019-04-30T11:30:17.442Z,14.98
2019-04-30T11:36:11.516Z,21.25
2019-04-30T11:42:15.904Z,22.02
2019-04-30T11:48:20.538Z,23.52
2019-04-30T11:54:24.752Z,22.00
2019-04-30T12:00:34.044Z,19.30
2019-04-30T12:06:39.447Z,17.60
2019-04-30T12:12:43.980Z,17.35
2019-04-30T12:18:48.265Z,18.70
2019-04-30T12:25:02.704Z,19.55
2019-04-30T12:30:58.929Z,17.57
2019-04-30T12:37:03.499Z,17.23
2019-04-30T12:43:07.791Z,18.65
2019-04-30T12:49:13.281Z,19.27
2019-04-30T12:55:33.943Z,18.87
2019-04-30T13:01:39.923Z,20.37
2019-04-30T13:07:45.088Z,20.95
2019-04-30T13:13:50.883Z,21.52
2019-04-30T13:19:55.751Z,18.87
2019-04-30T13:26:01.050Z,20.57
2019-04-30T13:32:05.826Z,17.37
2019-04-30T13:38:16.680Z,19.90
2019-04-30T13:44:26.005Z,18.17
2019-04-30T13:50:30.300Z,18.02
2019-04-30T13:56:34.532Z,18.30
2019-04-30T14:02:44.724Z,20.88
2019-04-30T14:08:50.521Z,20.48
2019-04-30T14:14:54.828Z,21.27
2019-04-30T14:21:01.007Z,20.55
2019-04-30T14:27:05.753Z,17.75
2019-04-30T14:33:22.747Z,19.90
2019-04-30T14:39:17.118Z,18.00
2019-04-30T14:45:26.874Z,18.05
2019-04-30T14:51:31.554Z,16.77
2019-04-30T14:58:04.054Z,17.67
2019-04-30T15:04:08.642Z,17.37
2019-04-30T15:10:13.162Z,16.73
2019-04-30T15:16:17.533Z,16.60
2019-04-30T15:22:22.008Z,16.45
2019-04-30T15:28:32.178Z,16.20
2019-04-30T15:34:32.827Z,17.27
2019-04-30T15:40:38.793Z,17.98
2019-04-30T15:46:43.267Z,16.67
2019-04-30T15:52:48.614Z,16.32
2019-04-30T15:59:10.948Z,17.25
2019-04-30T16:05:32.653Z,16.42
2019-04-30T16:12:01.957Z,17.52
2019-04-30T16:18:06.308Z,16.70
2019-04-30T16:24:10.676Z,15.43
2019-04-30T16:30:15.237Z,13.95
2019-04-30T16:36:19.530Z,14.15
2019-04-30T16:42:24.016Z,15.55
2019-04-30T16:48:28.981Z,15.50
2019-04-30T16:54:33.502Z,17.35
2019-04-30T17:00:39.786Z,16.27
2019-04-30T17:06:49.251Z,16.10
2019-04-30T17:13:00.479Z,17.62
2019-04-30T17:19:05.054Z,16.73
2019-04-30T17:25:10.156Z,15.93
2019-04-30T17:31:14.643Z,15.28
2019-04-30T17:37:19.052Z,15.85
2019-04-30T17:43:24.608Z,15.13
2019-04-30T17:49:28.849Z,15.40
2019-04-30T17:55:33.613Z,17.35
2019-04-30T18:01:40.145Z,17.65
2019-04-30T18:07:44.631Z,17.85
2019-04-30T18:13:50.689Z,18.37
2019-04-30T18:20:04.270Z,17.15
2019-04-30T18:26:11.481Z,16.62
2019-04-30T18:32:16.039Z,17.07
2019-04-30T18:38:20.467Z,16.62
2019-04-30T18:44:25.100Z,17.05
2019-04-30T18:50:31.075Z,16.20
2019-04-30T18:56:35.654Z,18.30
2019-04-30T19:02:40.507Z,18.32
2019-04-30T19:08:55.148Z,17.27
2019-04-30T19:15:21.189Z,18.12
2019-04-30T19:21:25.464Z,17.10
2019-04-30T19:27:32.767Z,18.20
2019-04-30T19:33:38.813Z,18.27
2019-04-30T19:39:43.015Z,20.32
2019-04-30T19:45:49.014Z,18.70
2019-04-30T19:52:05.339Z,18.45
2019-04-30T19:57:59.898Z,17.20
2019-04-30T20:04:04.304Z,17.27
2019-04-30T20:10:09.058Z,17.82
2019-04-30T20:16:13.439Z,18.65
2019-04-30T20:22:19.651Z,20.62
2019-04-30T20:28:23.745Z,20.35
2019-04-30T20:34:29.201Z,18.27
2019-04-30T20:40:43.351Z,19.62
2019-04-30T20:46:41.091Z,18.45
2019-04-30T20:52:45.314Z,20.52
2019-04-30T20:58:58.023Z,20.85
2019-04-30T21:04:55.748Z,21.23
2019-04-30T21:10:59.963Z,21.12
2019-04-30T21:17:04.469Z,22.30
2019-04-30T21:23:09.402Z,22.10
2019-04-30T21:29:16.045Z,21.68
2019-04-30T21:35:37.492Z,21.65
2019-04-30T21:41:42.083Z,22.10
2019-04-30T21:47:56.216Z,22.20
2019-04-30T21:53:53.804Z,22.67
2019-04-30T21:59:58.773Z,21.40
2019-04-30T22:06:03.196Z,21.55
2019-04-30T22:12:09.209Z,22.30
2019-04-30T22:18:13.604Z,21.48
2019-04-30T22:24:17.902Z,21.60
2019-04-30T22:30:22.121Z,20.90
2019-04-30T22:36:34.243Z,21.45
2019-04-30T22:42:39.873Z,21.05
2019-04-30T22:48:44.131Z,22.25
2019-04-30T22:54:48.322Z,22.65
2019-04-30T23:00:54.324Z,20.60
2019-04-30T23:06:58.553Z,22.02
2019-04-30T23:13:02.798Z,21.42
2019-04-30T23:19:07.068Z,23.75
2019-04-30T23:25:11.341Z,23.17
2019-04-30T23:31:15.545Z,23.05
2019-04-30T23:37:19.820Z,23.15
2019-04-30T23:43:24.137Z,21.82
2019-04-30T23:49:28.333Z,22.42
2019-04-30T23:55:32.724Z,21.23
